sensor_id;sensor_type;location;lat;lon;timestamp;pressure;altitude;pressure_sealevel;temperature;humidity
25610;BME280;13479;49.044;8.716;2023-05-15T04:02:09;98689.25;;;12.31;86.38
25610;BME280;13479;49.044;8.716;2023-05-15T04:04:34;98692.44;;;12.35;86.31
25610;BME280;13479;49.044;8.716;2023-05-15T04:07:01;98693.88;;;12.47;86.04
25610;BME280;13479;49.044;8.716;2023-05-15T04:09:26;98699.91;;;12.49;86.01
25610;BME280;13479;49.044;8.716;2023-05-15T04:11:51;98706.34;;;12.65;85.56
25610;BME280;13479;49.044;8.716;2023-05-15T04:14:16;98719.34;;;12.68;85.23
25610;BME280;13479;49.044;8.716;2023-05-15T04:16:42;98714.09;;;12.76;85.33
25610;BME280;13479;49.044;8.716;2023-05-15T04:19:07;98715.69;;;12.87;84.73
25610;BME280;13479;49.044;8.716;2023-05-15T04:21:32;98715.75;;;12.95;84.54
25610;BME280;13479;49.044;8.716;2023-05-15T04:23:57;98713.81;;;13.06;84.24
25610;BME280;13479;49.044;8.716;2023-05-15T04:26:23;98701.47;;;13.05;84.02
25610;BME280;13479;49.044;8.716;2023-05-15T04:28:48;98689.19;;;13.12;83.97
25610;BME280;13479;49.044;8.716;2023-05-15T04:31:13;98692.91;;;13.19;83.98
25610;BME280;13479;49.044;8.716;2023-05-15T04:33:38;98692.19;;;13.35;83.56
25610;BME280;13479;49.044;8.716;2023-05-15T04:36:05;98695.75;;;13.44;83.32
25610;BME280;13479;49.044;8.716;2023-05-15T04:38:31;98697.97;;;13.57;83.33
25610;BME280;13479;49.044;8.716;2023-05-15T04:40:56;98697.53;;;13.70;82.57
25610;BME280;13479;49.044;8.716;2023-05-15T04:43:21;98693.94;;;13.87;81.76
25610;BME280;13479;49.044;8.716;2023-05-15T04:45:47;98691.81;;;14.08;80.89
25610;BME280;13479;49.044;8.716;2023-05-15T04:48:12;98681.00;;;14.17;80.30
25610;BME280;13479;49.044;8.716;2023-05-15T04:50:37;98660.31;;;14.36;79.20
25610;BME280;13479;49.044;8.716;2023-05-15T04:53:02;98663.84;;;14.53;78.36
25610;BME280;13479;49.044;8.716;2023-05-15T04:55:28;98648.31;;;14.65;77.88
25610;BME280;13479;49.044;8.716;2023-05-15T04:57:53;98642.34;;;14.79;76.45
25610;BME280;13479;49.044;8.716;2023-05-15T05:00:18;98645.66;;;14.90;74.78
25610;BME280;13479;49.044;8.716;2023-05-15T05:02:44;98658.66;;;15.09;72.87
25610;BME280;13479;49.044;8.716;2023-05-15T05:05:10;98628.56;;;15.07;72.07
25610;BME280;13479;49.044;8.716;2023-05-15T05:07:35;98617.06;;;14.98;72.28
25610;BME280;13479;49.044;8.716;2023-05-15T05:10:01;98608.53;;;15.03;72.09
25610;BME280;13479;49.044;8.716;2023-05-15T05:12:26;98605.84;;;15.03;71.60
25610;BME280;13479;49.044;8.716;2023-05-15T05:14:52;98615.19;;;15.16;70.93
25610;BME280;13479;49.044;8.716;2023-05-15T05:17:17;98594.41;;;15.26;71.23
25610;BME280;13479;49.044;8.716;2023-05-15T05:19:42;98590.50;;;15.77;70.11
25610;BME280;13479;49.044;8.716;2023-05-15T05:22:08;98641.91;;;16.88;67.05
25610;BME280;13479;49.044;8.716;2023-05-15T05:24:33;98635.81;;;17.69;62.88
25610;BME280;13479;49.044;8.716;2023-05-15T05:27:03;98617.44;;;18.96;59.47
25610;BME280;13479;49.044;8.716;2023-05-15T05:29:29;98610.69;;;20.04;55.92
25610;BME280;13479;49.044;8.716;2023-05-15T05:31:54;98602.59;;;21.25;53.19
25610;BME280;13479;49.044;8.716;2023-05-15T05:34:20;98604.78;;;22.65;50.09
25610;BME280;13479;49.044;8.716;2023-05-15T05:36:46;98620.31;;;24.06;45.89
25610;BME280;13479;49.044;8.716;2023-05-15T05:39:11;98622.13;;;25.26;42.21
25610;BME280;13479;49.044;8.716;2023-05-15T05:41:36;98638.88;;;26.29;39.52
25610;BME280;13479;49.044;8.716;2023-05-15T05:44:01;98648.09;;;27.30;37.44
25610;BME280;13479;49.044;8.716;2023-05-15T05:46:27;98660.38;;;27.94;35.41
25610;BME280;13479;49.044;8.716;2023-05-15T05:48:52;98675.09;;;28.43;34.08
25610;BME280;13479;49.044;8.716;2023-05-15T05:51:18;98684.19;;;29.19;32.51
25610;BME280;13479;49.044;8.716;2023-05-15T05:53:43;98690.84;;;29.76;31.54
25610;BME280;13479;49.044;8.716;2023-05-15T05:56:08;98699.75;;;30.19;30.43
25610;BME280;13479;49.044;8.716;2023-05-15T05:58:33;98703.91;;;30.38;30.82
25610;BME280;13479;49.044;8.716;2023-05-15T06:00:59;98715.69;;;30.48;29.38
25610;BME280;13479;49.044;8.716;2023-05-15T06:03:25;98714.00;;;30.27;30.79
25610;BME280;13479;49.044;8.716;2023-05-15T06:05:50;98714.88;;;30.48;29.71
25610;BME280;13479;49.044;8.716;2023-05-15T06:08:16;98727.25;;;30.92;29.42
25610;BME280;13479;49.044;8.716;2023-05-15T06:10:42;98730.88;;;31.18;28.63
25610;BME280;13479;49.044;8.716;2023-05-15T06:13:07;98737.03;;;31.81;27.94
25610;BME280;13479;49.044;8.716;2023-05-15T06:15:33;98731.75;;;32.05;28.18
25610;BME280;13479;49.044;8.716;2023-05-15T06:17:58;98728.34;;;32.24;27.82
25610;BME280;13479;49.044;8.716;2023-05-15T06:20:23;98729.97;;;31.69;28.26
25610;BME280;13479;49.044;8.716;2023-05-15T06:22:49;98740.97;;;30.97;28.52
25610;BME280;13479;49.044;8.716;2023-05-15T06:25:14;98726.34;;;29.66;29.92
25610;BME280;13479;49.044;8.716;2023-05-15T06:27:39;98704.22;;;29.30;30.82
25610;BME280;13479;49.044;8.716;2023-05-15T06:30:06;98694.13;;;28.92;31.62
25610;BME280;13479;49.044;8.716;2023-05-15T06:32:31;98684.38;;;29.45;30.89
25610;BME280;13479;49.044;8.716;2023-05-15T06:34:57;98688.28;;;30.23;29.75
25610;BME280;13479;49.044;8.716;2023-05-15T06:37:23;98698.22;;;30.75;29.79
25610;BME280;13479;49.044;8.716;2023-05-15T06:39:48;98713.22;;;31.55;29.18
25610;BME280;13479;49.044;8.716;2023-05-15T06:42:14;98719.03;;;32.70;27.67
25610;BME280;13479;49.044;8.716;2023-05-15T06:44:39;98724.44;;;33.49;26.27
25610;BME280;13479;49.044;8.716;2023-05-15T06:47:04;98733.03;;;33.08;26.09
25610;BME280;13479;49.044;8.716;2023-05-15T06:49:30;98734.38;;;31.45;27.93
25610;BME280;13479;49.044;8.716;2023-05-15T06:51:55;98730.22;;;29.80;29.15
25610;BME280;13479;49.044;8.716;2023-05-15T06:54:20;98719.22;;;28.89;30.65
25610;BME280;13479;49.044;8.716;2023-05-15T06:56:46;98708.50;;;27.83;31.85
25610;BME280;13479;49.044;8.716;2023-05-15T06:59:11;98700.69;;;27.31;33.46
25610;BME280;13479;49.044;8.716;2023-05-15T07:01:37;98703.53;;;26.85;34.67
25610;BME280;13479;49.044;8.716;2023-05-15T07:04:03;98692.66;;;25.98;35.99
25610;BME280;13479;49.044;8.716;2023-05-15T07:06:28;98678.47;;;25.55;36.30
25610;BME280;13479;49.044;8.716;2023-05-15T07:08:55;98673.38;;;25.35;37.42
25610;BME280;13479;49.044;8.716;2023-05-15T07:11:21;98662.88;;;25.03;37.96
25610;BME280;13479;49.044;8.716;2023-05-15T07:13:46;98664.97;;;24.77;38.15
25610;BME280;13479;49.044;8.716;2023-05-15T07:16:12;98654.25;;;24.82;37.97
25610;BME280;13479;49.044;8.716;2023-05-15T07:18:37;98653.63;;;25.39;37.70
25610;BME280;13479;49.044;8.716;2023-05-15T07:21:02;98646.16;;;26.40;35.87
25610;BME280;13479;49.044;8.716;2023-05-15T07:23:27;98663.72;;;28.01;33.68
25610;BME280;13479;49.044;8.716;2023-05-15T07:25:53;98667.09;;;29.34;31.30
25610;BME280;13479;49.044;8.716;2023-05-15T07:28:19;98688.06;;;30.55;30.61
25610;BME280;13479;49.044;8.716;2023-05-15T07:30:45;98699.28;;;31.41;28.94
25610;BME280;13479;49.044;8.716;2023-05-15T07:33:10;98700.03;;;31.73;27.55
25610;BME280;13479;49.044;8.716;2023-05-15T07:35:36;98717.94;;;31.39;27.76
25610;BME280;13479;49.044;8.716;2023-05-15T07:38:01;98716.59;;;31.21;28.04
25610;BME280;13479;49.044;8.716;2023-05-15T07:40:26;98723.38;;;31.50;27.96
25610;BME280;13479;49.044;8.716;2023-05-15T07:42:51;98738.78;;;30.78;29.08
25610;BME280;13479;49.044;8.716;2023-05-15T07:45:17;98730.28;;;31.06;28.15
25610;BME280;13479;49.044;8.716;2023-05-15T07:47:48;98726.66;;;31.62;28.04
25610;BME280;13479;49.044;8.716;2023-05-15T07:50:13;98723.94;;;32.33;27.03
25610;BME280;13479;49.044;8.716;2023-05-15T07:52:39;98724.28;;;33.35;25.83
25610;BME280;13479;49.044;8.716;2023-05-15T07:55:05;98733.16;;;33.22;25.87
25610;BME280;13479;49.044;8.716;2023-05-15T07:57:31;98733.44;;;33.25;25.14
25610;BME280;13479;49.044;8.716;2023-05-15T07:59:56;98731.34;;;33.71;24.78
25610;BME280;13479;49.044;8.716;2023-05-15T08:02:22;98735.72;;;33.72;24.55
25610;BME280;13479;49.044;8.716;2023-05-15T08:04:47;98739.09;;;34.56;23.52
25610;BME280;13479;49.044;8.716;2023-05-15T08:07:13;98736.66;;;35.53;22.84
25610;BME280;13479;49.044;8.716;2023-05-15T08:09:38;98736.72;;;36.46;21.52
25610;BME280;13479;49.044;8.716;2023-05-15T08:12:17;98735.34;;;37.25;21.03
25610;BME280;13479;49.044;8.716;2023-05-15T08:14:45;98741.78;;;36.89;21.20
25610;BME280;13479;49.044;8.716;2023-05-15T08:17:11;98746.19;;;37.13;20.92
25610;BME280;13479;49.044;8.716;2023-05-15T08:19:36;98745.06;;;37.77;20.51
25610;BME280;13479;49.044;8.716;2023-05-15T08:22:01;98746.06;;;38.66;19.45
25610;BME280;13479;49.044;8.716;2023-05-15T08:24:26;98760.25;;;39.64;18.81
25610;BME280;13479;49.044;8.716;2023-05-15T08:26:51;98754.31;;;39.45;18.95
25610;BME280;13479;49.044;8.716;2023-05-15T08:29:17;98751.81;;;39.52;18.42
25610;BME280;13479;49.044;8.716;2023-05-15T08:31:42;98758.38;;;39.86;18.80
25610;BME280;13479;49.044;8.716;2023-05-15T08:34:07;98741.13;;;40.32;17.70
25610;BME280;13479;49.044;8.716;2023-05-15T08:36:32;98744.91;;;40.90;17.96
25610;BME280;13479;49.044;8.716;2023-05-15T08:38:58;98742.69;;;41.17;17.13
25610;BME280;13479;49.044;8.716;2023-05-15T08:41:37;98742.09;;;41.70;16.69
25610;BME280;13479;49.044;8.716;2023-05-15T08:44:07;98741.38;;;42.23;16.34
25610;BME280;13479;49.044;8.716;2023-05-15T08:46:34;98746.03;;;42.06;16.37
25610;BME280;13479;49.044;8.716;2023-05-15T08:49:02;98746.09;;;41.48;16.54
25610;BME280;13479;49.044;8.716;2023-05-15T08:51:30;98756.25;;;41.77;16.33
25610;BME280;13479;49.044;8.716;2023-05-15T08:53:56;98750.63;;;42.39;16.33
25610;BME280;13479;49.044;8.716;2023-05-15T08:56:21;98746.00;;;42.43;15.92
25610;BME280;13479;49.044;8.716;2023-05-15T08:58:47;98735.94;;;42.55;15.77
25610;BME280;13479;49.044;8.716;2023-05-15T09:01:13;98741.03;;;42.65;15.91
25610;BME280;13479;49.044;8.716;2023-05-15T09:03:39;98732.22;;;41.85;16.02
25610;BME280;13479;49.044;8.716;2023-05-15T09:06:05;98734.66;;;40.82;16.68
25610;BME280;13479;49.044;8.716;2023-05-15T09:08:31;98732.41;;;40.12;16.64
25610;BME280;13479;49.044;8.716;2023-05-15T09:10:59;98728.28;;;38.40;18.93
25610;BME280;13479;49.044;8.716;2023-05-15T09:13:25;98720.09;;;37.37;18.99
25610;BME280;13479;49.044;8.716;2023-05-15T09:15:50;98702.75;;;36.31;20.56
25610;BME280;13479;49.044;8.716;2023-05-15T09:18:16;98699.56;;;35.74;20.81
25610;BME280;13479;49.044;8.716;2023-05-15T09:20:42;98690.59;;;34.88;21.84
25610;BME280;13479;49.044;8.716;2023-05-15T09:23:26;98690.75;;;33.57;22.86
25610;BME280;13479;49.044;8.716;2023-05-15T09:25:52;98680.50;;;32.75;24.36
25610;BME280;13479;49.044;8.716;2023-05-15T09:28:27;98674.28;;;32.19;25.07
25610;BME280;13479;49.044;8.716;2023-05-15T09:31:03;98661.09;;;31.71;25.43
25610;BME280;13479;49.044;8.716;2023-05-15T09:33:34;98651.06;;;31.20;26.35
25610;BME280;13479;49.044;8.716;2023-05-15T09:36:00;98651.09;;;30.94;26.74
25610;BME280;13479;49.044;8.716;2023-05-15T09:38:26;98642.34;;;30.76;27.75
25610;BME280;13479;49.044;8.716;2023-05-15T09:41:05;98633.59;;;30.64;27.39
25610;BME280;13479;49.044;8.716;2023-05-15T09:43:36;98619.53;;;30.19;27.59
25610;BME280;13479;49.044;8.716;2023-05-15T09:46:01;98604.16;;;29.92;27.87
25610;BME280;13479;49.044;8.716;2023-05-15T09:48:28;98610.28;;;30.46;27.90
25610;BME280;13479;49.044;8.716;2023-05-15T09:50:55;98600.44;;;31.72;26.45
25610;BME280;13479;49.044;8.716;2023-05-15T09:53:21;98598.56;;;32.82;24.68
25610;BME280;13479;49.044;8.716;2023-05-15T09:55:47;98601.91;;;33.76;24.27
25610;BME280;13479;49.044;8.716;2023-05-15T09:58:17;98615.66;;;34.86;23.36
25610;BME280;13479;49.044;8.716;2023-05-15T10:00:43;98606.03;;;35.58;21.01
25610;BME280;13479;49.044;8.716;2023-05-15T10:03:10;98618.44;;;35.83;21.63
25610;BME280;13479;49.044;8.716;2023-05-15T10:05:36;98628.13;;;36.09;21.63
25610;BME280;13479;49.044;8.716;2023-05-15T10:08:02;98631.06;;;36.49;21.49
25610;BME280;13479;49.044;8.716;2023-05-15T10:10:28;98635.19;;;36.83;20.78
25610;BME280;13479;49.044;8.716;2023-05-15T10:12:56;98639.25;;;36.86;19.63
25610;BME280;13479;49.044;8.716;2023-05-15T10:15:30;98646.84;;;36.35;19.94
25610;BME280;13479;49.044;8.716;2023-05-15T10:17:56;98632.56;;;35.82;21.99
25610;BME280;13479;49.044;8.716;2023-05-15T10:20:24;98630.31;;;35.84;22.03
25610;BME280;13479;49.044;8.716;2023-05-15T10:22:51;98634.75;;;35.57;21.52
25610;BME280;13479;49.044;8.716;2023-05-15T10:25:33;98617.88;;;35.72;21.12
25610;BME280;13479;49.044;8.716;2023-05-15T10:28:02;98622.50;;;35.63;22.29
25610;BME280;13479;49.044;8.716;2023-05-15T10:30:28;98607.88;;;35.49;22.02
25610;BME280;13479;49.044;8.716;2023-05-15T10:32:54;98611.63;;;35.39;21.85
25610;BME280;13479;49.044;8.716;2023-05-15T10:35:20;98596.31;;;35.47;21.58
25610;BME280;13479;49.044;8.716;2023-05-15T10:37:46;98601.84;;;35.33;21.79
25610;BME280;13479;49.044;8.716;2023-05-15T10:40:14;98599.56;;;35.07;21.74
25610;BME280;13479;49.044;8.716;2023-05-15T10:42:44;98599.69;;;34.69;21.62
25610;BME280;13479;49.044;8.716;2023-05-15T10:45:10;98596.34;;;34.19;22.34
25610;BME280;13479;49.044;8.716;2023-05-15T10:47:37;98585.25;;;34.25;22.04
25610;BME280;13479;49.044;8.716;2023-05-15T10:50:04;98574.56;;;34.04;22.33
25610;BME280;13479;49.044;8.716;2023-05-15T10:52:31;98565.09;;;34.10;22.22
25610;BME280;13479;49.044;8.716;2023-05-15T10:54:57;98561.38;;;34.01;22.30
25610;BME280;13479;49.044;8.716;2023-05-15T10:57:22;98559.59;;;33.72;21.41
25610;BME280;13479;49.044;8.716;2023-05-15T10:59:48;98555.41;;;33.07;21.84
25610;BME280;13479;49.044;8.716;2023-05-15T11:02:27;98551.03;;;33.30;23.40
25610;BME280;13479;49.044;8.716;2023-05-15T11:04:55;98531.94;;;33.39;22.92
25610;BME280;13479;49.044;8.716;2023-05-15T11:07:21;98541.41;;;33.27;23.59
25610;BME280;13479;49.044;8.716;2023-05-15T11:09:48;98527.94;;;32.77;23.71
25610;BME280;13479;49.044;8.716;2023-05-15T11:12:14;98528.84;;;32.09;22.10
25610;BME280;13479;49.044;8.716;2023-05-15T11:14:42;98523.72;;;31.52;24.11
25610;BME280;13479;49.044;8.716;2023-05-15T11:17:09;98516.22;;;31.02;23.34
25610;BME280;13479;49.044;8.716;2023-05-15T11:27:20;98503.59;;;28.34;29.00
25610;BME280;13479;49.044;8.716;2023-05-15T11:30:05;98509.41;;;27.78;29.97
25610;BME280;13479;49.044;8.716;2023-05-15T11:37:46;98474.72;;;27.24;30.70
25610;BME280;13479;49.044;8.716;2023-05-15T11:40:19;98474.69;;;27.19;30.50
25610;BME280;13479;49.044;8.716;2023-05-15T11:43:04;98478.78;;;27.21;31.42
25610;BME280;13479;49.044;8.716;2023-05-15T11:45:35;98479.66;;;27.27;30.56
25610;BME280;13479;49.044;8.716;2023-05-15T11:48:04;98465.66;;;27.18;30.35
25610;BME280;13479;49.044;8.716;2023-05-15T11:50:31;98461.94;;;27.24;31.18
25610;BME280;13479;49.044;8.716;2023-05-15T11:53:00;98460.69;;;27.10;31.03
25610;BME280;13479;49.044;8.716;2023-05-15T11:55:27;98464.22;;;27.10;31.27
25610;BME280;13479;49.044;8.716;2023-05-15T11:57:53;98458.72;;;27.05;30.67
25610;BME280;13479;49.044;8.716;2023-05-15T12:00:20;98456.31;;;27.09;30.63
25610;BME280;13479;49.044;8.716;2023-05-15T12:02:45;98448.91;;;27.04;31.45
25610;BME280;13479;49.044;8.716;2023-05-15T12:05:10;98452.81;;;26.91;30.15
25610;BME280;13479;49.044;8.716;2023-05-15T12:07:42;98442.09;;;26.62;31.06
25610;BME280;13479;49.044;8.716;2023-05-15T12:10:09;98452.47;;;26.65;30.44
25610;BME280;13479;49.044;8.716;2023-05-15T12:12:38;98453.00;;;26.45;32.59
25610;BME280;13479;49.044;8.716;2023-05-15T12:15:04;98468.56;;;26.11;34.14
25610;BME280;13479;49.044;8.716;2023-05-15T12:17:31;98481.06;;;25.95;34.65
25610;BME280;13479;49.044;8.716;2023-05-15T12:19:58;98472.13;;;25.82;35.14
25610;BME280;13479;49.044;8.716;2023-05-15T12:22:24;98466.69;;;25.65;34.49
25610;BME280;13479;49.044;8.716;2023-05-15T12:24:49;98457.59;;;25.42;35.09
25610;BME280;13479;49.044;8.716;2023-05-15T12:27:14;98461.47;;;25.35;35.14
25610;BME280;13479;49.044;8.716;2023-05-15T12:29:40;98455.94;;;25.01;35.33
25610;BME280;13479;49.044;8.716;2023-05-15T12:32:06;98447.88;;;25.06;35.78
25610;BME280;13479;49.044;8.716;2023-05-15T12:34:32;98445.75;;;25.08;36.38
25610;BME280;13479;49.044;8.716;2023-05-15T12:36:58;98443.13;;;25.13;35.55
25610;BME280;13479;49.044;8.716;2023-05-15T12:39:24;98438.38;;;25.20;34.79
25610;BME280;13479;49.044;8.716;2023-05-15T12:41:50;98436.09;;;25.29;34.38
25610;BME280;13479;49.044;8.716;2023-05-15T12:44:18;98438.91;;;25.34;33.78
25610;BME280;13479;49.044;8.716;2023-05-15T12:46:44;98444.28;;;25.17;34.48
25610;BME280;13479;49.044;8.716;2023-05-15T12:49:10;98437.31;;;25.21;34.71
25610;BME280;13479;49.044;8.716;2023-05-15T12:51:43;98438.78;;;25.12;34.66
25610;BME280;13479;49.044;8.716;2023-05-15T12:54:19;98444.09;;;25.07;34.78
25610;BME280;13479;49.044;8.716;2023-05-15T12:56:46;98452.81;;;25.09;34.37
25610;BME280;13479;49.044;8.716;2023-05-15T12:59:12;98456.81;;;25.18;33.83
25610;BME280;13479;49.044;8.716;2023-05-15T13:01:40;98461.63;;;25.28;33.47
25610;BME280;13479;49.044;8.716;2023-05-15T13:04:06;98471.56;;;25.22;33.37
25610;BME280;13479;49.044;8.716;2023-05-15T13:06:31;98456.44;;;25.26;33.73
25610;BME280;13479;49.044;8.716;2023-05-15T13:08:57;98452.22;;;25.19;33.73
25610;BME280;13479;49.044;8.716;2023-05-15T13:11:22;98453.94;;;24.96;33.88
25610;BME280;13479;49.044;8.716;2023-05-15T13:13:48;98445.66;;;24.91;34.30
25610;BME280;13479;49.044;8.716;2023-05-15T13:16:22;98444.53;;;24.63;35.02
25610;BME280;13479;49.044;8.716;2023-05-15T13:18:48;98443.59;;;24.57;35.93
25610;BME280;13479;49.044;8.716;2023-05-15T13:21:13;98437.59;;;24.55;35.40
25610;BME280;13479;49.044;8.716;2023-05-15T13:23:38;98438.88;;;24.41;36.09
25610;BME280;13479;49.044;8.716;2023-05-15T13:26:03;98439.72;;;24.29;35.11
25610;BME280;13479;49.044;8.716;2023-05-15T13:28:29;98433.81;;;24.09;35.47
25610;BME280;13479;49.044;8.716;2023-05-15T13:30:54;98431.19;;;23.90;36.52
25610;BME280;13479;49.044;8.716;2023-05-15T13:33:19;98418.91;;;23.87;36.26
25610;BME280;13479;49.044;8.716;2023-05-15T13:35:44;98423.38;;;23.82;37.31
25610;BME280;13479;49.044;8.716;2023-05-15T13:38:10;98420.91;;;23.80;36.75
25610;BME280;13479;49.044;8.716;2023-05-15T13:40:35;98415.28;;;23.94;36.97
25610;BME280;13479;49.044;8.716;2023-05-15T13:43:01;98424.41;;;23.99;37.84
25610;BME280;13479;49.044;8.716;2023-05-15T13:45:27;98426.53;;;24.21;37.82
25610;BME280;13479;49.044;8.716;2023-05-15T13:47:53;98422.28;;;24.25;38.83
25610;BME280;13479;49.044;8.716;2023-05-15T13:50:19;98433.47;;;24.41;36.34
25610;BME280;13479;49.044;8.716;2023-05-15T13:52:45;98431.44;;;24.60;36.30
25610;BME280;13479;49.044;8.716;2023-05-15T13:55:11;98435.91;;;24.78;35.72
25610;BME280;13479;49.044;8.716;2023-05-15T13:57:37;98430.63;;;24.71;34.71
25610;BME280;13479;49.044;8.716;2023-05-15T14:00:04;98429.31;;;24.74;35.21
25610;BME280;13479;49.044;8.716;2023-05-15T14:02:31;98430.16;;;24.74;34.78
25610;BME280;13479;49.044;8.716;2023-05-15T14:04:56;98431.19;;;24.61;36.82
25610;BME280;13479;49.044;8.716;2023-05-15T14:07:22;98424.59;;;24.81;36.03
25610;BME280;13479;49.044;8.716;2023-05-15T14:09:48;98439.00;;;24.46;36.18
25610;BME280;13479;49.044;8.716;2023-05-15T14:12:13;98434.19;;;24.36;36.60
25610;BME280;13479;49.044;8.716;2023-05-15T14:14:38;98435.22;;;24.11;37.39
25610;BME280;13479;49.044;8.716;2023-05-15T14:17:04;98424.97;;;24.13;36.85
25610;BME280;13479;49.044;8.716;2023-05-15T14:19:29;98429.59;;;24.25;37.09
25610;BME280;13479;49.044;8.716;2023-05-15T14:21:55;98425.09;;;24.30;36.74
25610;BME280;13479;49.044;8.716;2023-05-15T14:24:20;98421.69;;;24.47;36.75
25610;BME280;13479;49.044;8.716;2023-05-15T14:26:45;98422.00;;;24.62;37.57
25610;BME280;13479;49.044;8.716;2023-05-15T14:29:11;98434.75;;;24.74;36.17
25610;BME280;13479;49.044;8.716;2023-05-15T14:31:36;98425.81;;;25.02;35.71
25610;BME280;13479;49.044;8.716;2023-05-15T14:34:02;98432.75;;;25.10;35.16
25610;BME280;13479;49.044;8.716;2023-05-15T14:36:29;98438.53;;;25.13;35.23
25610;BME280;13479;49.044;8.716;2023-05-15T14:38:55;98439.63;;;25.01;34.47
25610;BME280;13479;49.044;8.716;2023-05-15T14:41:20;98445.06;;;25.01;35.11
25610;BME280;13479;49.044;8.716;2023-05-15T14:43:45;98448.38;;;25.03;35.72
25610;BME280;13479;49.044;8.716;2023-05-15T14:46:11;98452.06;;;24.85;40.03
25610;BME280;13479;49.044;8.716;2023-05-15T14:48:36;98480.03;;;24.37;41.43
25610;BME280;13479;49.044;8.716;2023-05-15T14:51:02;98494.28;;;23.97;42.23
25610;BME280;13479;49.044;8.716;2023-05-15T14:53:27;98496.19;;;23.66;43.14
25610;BME280;13479;49.044;8.716;2023-05-15T14:55:53;98501.34;;;23.19;43.99
25610;BME280;13479;49.044;8.716;2023-05-15T14:58:19;98501.13;;;22.64;44.83
25610;BME280;13479;49.044;8.716;2023-05-15T15:00:45;98503.63;;;22.15;47.38
25610;BME280;13479;49.044;8.716;2023-05-15T15:03:12;98504.09;;;21.80;47.38
25610;BME280;13479;49.044;8.716;2023-05-15T15:05:37;98505.72;;;21.49;47.10
25610;BME280;13479;49.044;8.716;2023-05-15T15:08:04;98483.44;;;21.15;46.74
25610;BME280;13479;49.044;8.716;2023-05-15T15:10:32;98495.97;;;20.89;48.44
25610;BME280;13479;49.044;8.716;2023-05-15T15:12:58;98489.38;;;20.72;48.72
25610;BME280;13479;49.044;8.716;2023-05-15T15:15:24;98477.56;;;20.66;47.09
25610;BME280;13479;49.044;8.716;2023-05-15T15:17:49;98493.53;;;20.67;47.91
25610;BME280;13479;49.044;8.716;2023-05-15T15:20:16;98491.06;;;20.59;48.16
25610;BME280;13479;49.044;8.716;2023-05-15T15:22:42;98498.09;;;20.67;48.84
25610;BME280;13479;49.044;8.716;2023-05-15T15:25:07;98515.13;;;20.74;52.15
25610;BME280;13479;49.044;8.716;2023-05-15T15:27:33;98505.56;;;20.85;51.24
25610;BME280;13479;49.044;8.716;2023-05-15T15:30:01;98530.41;;;21.01;52.82
25610;BME280;13479;49.044;8.716;2023-05-15T15:32:28;98524.16;;;21.07;52.31
25610;BME280;13479;49.044;8.716;2023-05-15T15:34:57;98501.97;;;21.05;51.58
25610;BME280;13479;49.044;8.716;2023-05-15T15:37:23;98491.41;;;21.03;52.34
25610;BME280;13479;49.044;8.716;2023-05-15T15:39:49;98487.03;;;21.02;51.75
25610;BME280;13479;49.044;8.716;2023-05-15T15:42:14;98490.09;;;21.19;49.71
25610;BME280;13479;49.044;8.716;2023-05-15T15:44:40;98510.19;;;21.23;48.95
25610;BME280;13479;49.044;8.716;2023-05-15T15:47:06;98499.97;;;21.32;49.92
25610;BME280;13479;49.044;8.716;2023-05-15T15:49:31;98509.50;;;21.35;49.35
25610;BME280;13479;49.044;8.716;2023-05-15T15:51:56;98522.75;;;21.50;48.44
25610;BME280;13479;49.044;8.716;2023-05-15T15:54:22;98524.50;;;21.76;47.24
25610;BME280;13479;49.044;8.716;2023-05-15T15:56:47;98528.72;;;21.58;48.19
25610;BME280;13479;49.044;8.716;2023-05-15T15:59:13;98505.03;;;21.15;50.14
25610;BME280;13479;49.044;8.716;2023-05-15T16:01:38;98506.19;;;20.87;49.87
25610;BME280;13479;49.044;8.716;2023-05-15T16:04:04;98491.09;;;20.39;53.58
25610;BME280;13479;49.044;8.716;2023-05-15T16:06:30;98515.34;;;20.32;49.67
25610;BME280;13479;49.044;8.716;2023-05-15T16:08:55;98488.63;;;20.11;51.81
25610;BME280;13479;49.044;8.716;2023-05-15T16:11:20;98498.16;;;20.06;50.43
25610;BME280;13479;49.044;8.716;2023-05-15T16:13:46;98484.69;;;20.20;51.28
25610;BME280;13479;49.044;8.716;2023-05-15T16:16:11;98496.91;;;20.36;51.07
25610;BME280;13479;49.044;8.716;2023-05-15T16:18:36;98494.84;;;20.11;53.30
25610;BME280;13479;49.044;8.716;2023-05-15T16:21:01;98505.19;;;19.94;53.58
25610;BME280;13479;49.044;8.716;2023-05-15T16:23:32;98495.44;;;19.86;53.62
25610;BME280;13479;49.044;8.716;2023-05-15T16:25:57;98499.34;;;19.70;55.29
25610;BME280;13479;49.044;8.716;2023-05-15T16:28:23;98502.66;;;19.72;56.36
25610;BME280;13479;49.044;8.716;2023-05-15T16:30:48;98512.38;;;19.67;56.71
25610;BME280;13479;49.044;8.716;2023-05-15T16:33:15;98504.63;;;19.43;57.60
25610;BME280;13479;49.044;8.716;2023-05-15T16:35:41;98516.13;;;19.10;58.68
25610;BME280;13479;49.044;8.716;2023-05-15T16:38:06;98522.75;;;19.14;59.14
25610;BME280;13479;49.044;8.716;2023-05-15T16:40:32;98511.84;;;18.88;58.98
25610;BME280;13479;49.044;8.716;2023-05-15T16:42:57;98512.56;;;18.68;59.63
25610;BME280;13479;49.044;8.716;2023-05-15T16:45:22;98524.59;;;18.72;59.88
25610;BME280;13479;49.044;8.716;2023-05-15T16:47:47;98511.22;;;18.50;60.82
25610;BME280;13479;49.044;8.716;2023-05-15T16:50:13;98502.31;;;18.21;60.67
25610;BME280;13479;49.044;8.716;2023-05-15T16:52:38;98512.25;;;17.99;62.77
25610;BME280;13479;49.044;8.716;2023-05-15T16:55:09;98524.09;;;17.68;63.64
25610;BME280;13479;49.044;8.716;2023-05-15T16:57:34;98536.66;;;17.46;64.66
25610;BME280;13479;49.044;8.716;2023-05-15T16:59:59;98542.81;;;17.10;65.89
25610;BME280;13479;49.044;8.716;2023-05-15T17:02:24;98540.63;;;16.98;67.03
25610;BME280;13479;49.044;8.716;2023-05-15T17:04:50;98547.94;;;17.05;68.52
25610;BME280;13479;49.044;8.716;2023-05-15T17:07:16;98535.69;;;16.87;67.87
25610;BME280;13479;49.044;8.716;2023-05-15T17:09:42;98533.38;;;16.84;68.49